DLH161 EDDH-EDDM
Flight info
| Callsign | DLH161 |
|---|---|
| Flight time | 1h 12m |
| Altitude | 35000 |
| Route | AMLUH2C AMLUH M852 DENIX DCT ZUCKA DCT SODRO/N0459F310 T703 LULAR/N0462F300 T105 LANDU LANDU2B |
| Aircraft | A320/M-SDE3FGHIRWY/LB1 |
Departure
| Time | 2026-05-07 06:22 |
|---|---|
| Airport | Hamburg Helmut Schmidt Airport (EDDH) |
Arrival
| Time | 2026-05-07 07:35 |
|---|---|
| Airport | Munich Airport (EDDM) |
| Time | Latitude | Longitude | Altitude | Speed | Heading |
|---|---|---|---|---|---|
| 2026-05-07 05:42 | 53.63168 | 10.00368 | 49 ft | 0 kts | 86° |
| 2026-05-07 05:43 | 53.63168 | 10.00364 | 49 ft | 0 kts | 86° |
| 2026-05-07 06:10 | 53.63167 | 10.00340 | 48 ft | 4 kts | 86° |
| 2026-05-07 06:10 | 53.63165 | 10.00304 | 48 ft | 4 kts | 93° |
| 2026-05-07 06:10 | 53.63172 | 10.00264 | 44 ft | 4 kts | 136° |
| 2026-05-07 06:10 | 53.63186 | 10.00250 | 48 ft | 0 kts | 176° |
| 2026-05-07 06:13 | 53.63159 | 10.00254 | 48 ft | 7 kts | 176° |
| 2026-05-07 06:14 | 53.63116 | 10.00259 | 48 ft | 6 kts | 176° |
| 2026-05-07 06:14 | 53.63081 | 10.00263 | 48 ft | 5 kts | 176° |
| 2026-05-07 06:14 | 53.63034 | 10.00226 | 48 ft | 11 kts | 212° |
| 2026-05-07 06:14 | 53.62975 | 10.00163 | 48 ft | 9 kts | 212° |
| 2026-05-07 06:15 | 53.62923 | 10.00107 | 48 ft | 8 kts | 212° |
| 2026-05-07 06:15 | 53.62865 | 10.00036 | 48 ft | 12 kts | 224° |
| 2026-05-07 06:15 | 53.62797 | 9.99954 | 46 ft | 12 kts | 210° |
| 2026-05-07 06:15 | 53.62722 | 9.99886 | 46 ft | 12 kts | 208° |
| 2026-05-07 06:16 | 53.62655 | 9.99812 | 46 ft | 14 kts | 230° |
| 2026-05-07 06:16 | 53.62623 | 9.99623 | 47 ft | 18 kts | 259° |
| 2026-05-07 06:16 | 53.62601 | 9.99430 | 47 ft | 16 kts | 259° |
| 2026-05-07 06:16 | 53.62581 | 9.99256 | 47 ft | 14 kts | 259° |
| 2026-05-07 06:17 | 53.62563 | 9.99099 | 45 ft | 14 kts | 259° |
| 2026-05-07 06:17 | 53.62538 | 9.98880 | 47 ft | 21 kts | 259° |
| 2026-05-07 06:17 | 53.62513 | 9.98655 | 47 ft | 19 kts | 259° |
| 2026-05-07 06:17 | 53.62489 | 9.98448 | 47 ft | 19 kts | 259° |
| 2026-05-07 06:18 | 53.62466 | 9.98243 | 47 ft | 17 kts | 259° |
| 2026-05-07 06:18 | 53.62420 | 9.98073 | 47 ft | 15 kts | 236° |
| 2026-05-07 06:18 | 53.62333 | 9.97894 | 47 ft | 24 kts | 230° |
| 2026-05-07 06:18 | 53.62232 | 9.97689 | 47 ft | 22 kts | 230° |
| 2026-05-07 06:19 | 53.62141 | 9.97505 | 47 ft | 20 kts | 230° |
| 2026-05-07 06:19 | 53.62058 | 9.97337 | 47 ft | 18 kts | 230° |
| 2026-05-07 06:19 | 53.61983 | 9.97186 | 47 ft | 16 kts | 230° |
| 2026-05-07 06:19 | 53.61915 | 9.97049 | 47 ft | 14 kts | 230° |
| 2026-05-07 06:20 | 53.61835 | 9.96886 | 47 ft | 20 kts | 230° |
| 2026-05-07 06:20 | 53.61752 | 9.96719 | 47 ft | 18 kts | 230° |
| 2026-05-07 06:20 | 53.61680 | 9.96573 | 47 ft | 13 kts | 233° |
| 2026-05-07 06:20 | 53.61680 | 9.96447 | 45 ft | 11 kts | 311° |
| 2026-05-07 06:21 | 53.61745 | 9.96414 | 46 ft | 11 kts | 2° |
| 2026-05-07 06:21 | 53.61844 | 9.96431 | 45 ft | 13 kts | 12° |
| 2026-05-07 06:21 | 53.61908 | 9.96535 | 44 ft | 13 kts | 50° |
| 2026-05-07 06:21 | 53.61982 | 9.96685 | 43 ft | 30 kts | 50° |
| 2026-05-07 06:22 | 53.62275 | 9.97278 | 40 ft | 98 kts | 50° |
| 2026-05-07 06:22 | 53.63541 | 9.99839 | 405 ft | 163 kts | 51° |
| 2026-05-07 06:22 | 53.64269 | 10.01313 | 1148 ft | 163 kts | 52° |
| 2026-05-07 06:23 | 53.65032 | 10.02862 | 1592 ft | 182 kts | 53° |
| 2026-05-07 06:23 | 53.65895 | 10.04640 | 1912 ft | 209 kts | 54° |
| 2026-05-07 06:23 | 53.66798 | 10.06515 | 2889 ft | 203 kts | 54° |
| 2026-05-07 06:23 | 53.67689 | 10.08336 | 3819 ft | 202 kts | 53° |
| 2026-05-07 06:24 | 53.68593 | 10.10176 | 4621 ft | 206 kts | 52° |
| 2026-05-07 06:24 | 53.69511 | 10.12044 | 5228 ft | 207 kts | 51° |
| 2026-05-07 06:24 | 53.70278 | 10.14102 | 5981 ft | 210 kts | 71° |
| 2026-05-07 06:24 | 53.70432 | 10.16572 | 6697 ft | 218 kts | 97° |
| 2026-05-07 06:25 | 53.69852 | 10.18995 | 7221 ft | 237 kts | 126° |
| 2026-05-07 06:25 | 53.68476 | 10.20757 | 7565 ft | 266 kts | 158° |
| 2026-05-07 06:25 | 53.66636 | 10.21642 | 8088 ft | 281 kts | 164° |
| 2026-05-07 06:25 | 53.64720 | 10.22482 | 8845 ft | 287 kts | 164° |
| 2026-05-07 06:26 | 53.62775 | 10.23333 | 9681 ft | 292 kts | 165° |
| 2026-05-07 06:26 | 53.60782 | 10.24215 | 10310 ft | 302 kts | 165° |
| 2026-05-07 06:26 | 53.58673 | 10.25159 | 10566 ft | 325 kts | 165° |
| 2026-05-07 06:26 | 53.56408 | 10.26176 | 10777 ft | 348 kts | 165° |
| 2026-05-07 06:27 | 53.54014 | 10.27253 | 11179 ft | 361 kts | 165° |
| 2026-05-07 06:27 | 53.51575 | 10.28353 | 11861 ft | 365 kts | 165° |
| 2026-05-07 06:27 | 53.49105 | 10.29464 | 12580 ft | 369 kts | 165° |
| 2026-05-07 06:27 | 53.46613 | 10.30585 | 13273 ft | 373 kts | 165° |
| 2026-05-07 06:28 | 53.44084 | 10.31718 | 13939 ft | 377 kts | 166° |
| 2026-05-07 06:28 | 53.41534 | 10.32858 | 14530 ft | 381 kts | 166° |
| 2026-05-07 06:28 | 53.38963 | 10.34012 | 15189 ft | 382 kts | 166° |
| 2026-05-07 06:28 | 53.36423 | 10.35156 | 15824 ft | 384 kts | 166° |
| 2026-05-07 06:29 | 53.33830 | 10.36320 | 16422 ft | 387 kts | 166° |
| 2026-05-07 06:29 | 53.31217 | 10.37489 | 17013 ft | 390 kts | 166° |
| 2026-05-07 06:29 | 53.28554 | 10.38685 | 17619 ft | 393 kts | 166° |
| 2026-05-07 06:29 | 53.25910 | 10.39872 | 18220 ft | 394 kts | 166° |
| 2026-05-07 06:30 | 53.23286 | 10.41046 | 18708 ft | 397 kts | 167° |
| 2026-05-07 06:30 | 53.20612 | 10.42241 | 19217 ft | 399 kts | 167° |
| 2026-05-07 06:30 | 53.17920 | 10.43441 | 19708 ft | 402 kts | 166° |
| 2026-05-07 06:30 | 53.15217 | 10.44645 | 20185 ft | 404 kts | 166° |
| 2026-05-07 06:31 | 53.12488 | 10.45838 | 20665 ft | 406 kts | 167° |
| 2026-05-07 06:31 | 53.09724 | 10.46880 | 21139 ft | 408 kts | 170° |
| 2026-05-07 06:31 | 53.06927 | 10.47777 | 21607 ft | 410 kts | 171° |
| 2026-05-07 06:31 | 53.04111 | 10.48597 | 22067 ft | 413 kts | 172° |
| 2026-05-07 06:32 | 53.01274 | 10.49398 | 22526 ft | 415 kts | 172° |
| 2026-05-07 06:32 | 52.98420 | 10.50219 | 22976 ft | 417 kts | 171° |
| 2026-05-07 06:32 | 52.95548 | 10.51073 | 23405 ft | 420 kts | 171° |
| 2026-05-07 06:32 | 52.92670 | 10.51949 | 23779 ft | 422 kts | 171° |
| 2026-05-07 06:33 | 52.89771 | 10.52849 | 24131 ft | 424 kts | 171° |
| 2026-05-07 06:33 | 52.86862 | 10.53758 | 24480 ft | 427 kts | 171° |
| 2026-05-07 06:33 | 52.83939 | 10.54671 | 24826 ft | 429 kts | 171° |
| 2026-05-07 06:33 | 52.81003 | 10.55581 | 25171 ft | 431 kts | 171° |
| 2026-05-07 06:34 | 52.78051 | 10.56492 | 25508 ft | 433 kts | 171° |
| 2026-05-07 06:34 | 52.75081 | 10.57400 | 25853 ft | 435 kts | 171° |
| 2026-05-07 06:34 | 52.72124 | 10.58303 | 26183 ft | 436 kts | 171° |
| 2026-05-07 06:34 | 52.69132 | 10.59218 | 26506 ft | 438 kts | 171° |
| 2026-05-07 06:35 | 52.66131 | 10.60136 | 26883 ft | 439 kts | 171° |
| 2026-05-07 06:35 | 52.63126 | 10.61051 | 27204 ft | 440 kts | 171° |
| 2026-05-07 06:35 | 52.60107 | 10.61970 | 27506 ft | 442 kts | 171° |
| 2026-05-07 06:35 | 52.57075 | 10.62896 | 27799 ft | 444 kts | 171° |
| 2026-05-07 06:36 | 52.54071 | 10.63817 | 28084 ft | 446 kts | 171° |
| 2026-05-07 06:36 | 52.51013 | 10.64753 | 28381 ft | 447 kts | 171° |
| 2026-05-07 06:36 | 52.47955 | 10.65683 | 28689 ft | 448 kts | 170° |
| 2026-05-07 06:36 | 52.44891 | 10.66609 | 29093 ft | 447 kts | 171° |
| 2026-05-07 06:37 | 52.41834 | 10.67532 | 29509 ft | 446 kts | 171° |
| 2026-05-07 06:37 | 52.38784 | 10.68451 | 29891 ft | 445 kts | 170° |
| 2026-05-07 06:37 | 52.35736 | 10.69369 | 30254 ft | 445 kts | 170° |
| 2026-05-07 06:37 | 52.32656 | 10.70298 | 30664 ft | 444 kts | 171° |
| 2026-05-07 06:38 | 52.29670 | 10.71202 | 31024 ft | 442 kts | 171° |
| 2026-05-07 06:38 | 52.26644 | 10.72116 | 31373 ft | 441 kts | 170° |
| 2026-05-07 06:38 | 52.23674 | 10.73008 | 31720 ft | 440 kts | 171° |
| 2026-05-07 06:38 | 52.20622 | 10.73922 | 32087 ft | 438 kts | 171° |
| 2026-05-07 06:39 | 52.17631 | 10.74816 | 32446 ft | 437 kts | 171° |
| 2026-05-07 06:39 | 52.14644 | 10.75709 | 32800 ft | 436 kts | 171° |
| 2026-05-07 06:39 | 52.11667 | 10.76596 | 33154 ft | 435 kts | 171° |
| 2026-05-07 06:39 | 52.08694 | 10.77476 | 33510 ft | 433 kts | 171° |
| 2026-05-07 06:40 | 52.05724 | 10.78353 | 33867 ft | 432 kts | 171° |
| 2026-05-07 06:40 | 52.02773 | 10.79226 | 34159 ft | 431 kts | 171° |
| 2026-05-07 06:40 | 51.99824 | 10.80102 | 34406 ft | 431 kts | 171° |
| 2026-05-07 06:40 | 51.96864 | 10.80984 | 34627 ft | 432 kts | 171° |
| 2026-05-07 06:41 | 51.93907 | 10.81866 | 34847 ft | 433 kts | 171° |
| 2026-05-07 06:41 | 51.90938 | 10.82747 | 34936 ft | 435 kts | 171° |
| 2026-05-07 06:41 | 51.84968 | 10.84508 | 34942 ft | 437 kts | 171° |
| 2026-05-07 06:42 | 51.78979 | 10.86268 | 34944 ft | 437 kts | 171° |
| 2026-05-07 06:42 | 51.72999 | 10.88025 | 34937 ft | 437 kts | 171° |
| 2026-05-07 06:43 | 51.67100 | 10.90127 | 34934 ft | 439 kts | 162° |
| 2026-05-07 06:43 | 51.61551 | 10.94280 | 34930 ft | 441 kts | 156° |
| 2026-05-07 06:44 | 51.56047 | 10.98627 | 34919 ft | 441 kts | 156° |
| 2026-05-07 06:44 | 51.50532 | 11.02953 | 34922 ft | 441 kts | 156° |
| 2026-05-07 06:45 | 51.45016 | 11.07281 | 34913 ft | 441 kts | 156° |
| 2026-05-07 06:45 | 51.39500 | 11.11599 | 34920 ft | 441 kts | 156° |
| 2026-05-07 06:46 | 51.33986 | 11.15899 | 34929 ft | 440 kts | 156° |
| 2026-05-07 06:46 | 51.28490 | 11.20177 | 34926 ft | 439 kts | 156° |
| 2026-05-07 06:47 | 51.23010 | 11.24435 | 34923 ft | 438 kts | 156° |
| 2026-05-07 06:47 | 51.17566 | 11.28656 | 34912 ft | 438 kts | 156° |
| 2026-05-07 06:48 | 51.12055 | 11.32920 | 34907 ft | 438 kts | 156° |
| 2026-05-07 06:48 | 51.06573 | 11.37142 | 34901 ft | 438 kts | 156° |
| 2026-05-07 06:49 | 51.01123 | 11.41323 | 34888 ft | 438 kts | 157° |
| 2026-05-07 06:49 | 50.95640 | 11.45527 | 34902 ft | 437 kts | 157° |
| 2026-05-07 06:50 | 50.90160 | 11.49720 | 34899 ft | 437 kts | 157° |
| 2026-05-07 06:50 | 50.84686 | 11.53895 | 34896 ft | 436 kts | 157° |
| 2026-05-07 06:51 | 50.79216 | 11.58055 | 34893 ft | 436 kts | 157° |
| 2026-05-07 06:51 | 50.73748 | 11.62196 | 34885 ft | 436 kts | 157° |
| 2026-05-07 06:52 | 50.68271 | 11.66344 | 34876 ft | 436 kts | 157° |
| 2026-05-07 06:52 | 50.63716 | 11.69781 | 34876 ft | 437 kts | 157° |
| 2026-05-07 06:53 | 50.58234 | 11.73909 | 34872 ft | 436 kts | 158° |
| 2026-05-07 06:53 | 50.52757 | 11.78021 | 34883 ft | 435 kts | 158° |
| 2026-05-07 06:54 | 50.47293 | 11.82110 | 34898 ft | 435 kts | 158° |
| 2026-05-07 06:54 | 50.41834 | 11.86010 | 34890 ft | 433 kts | 160° |
| 2026-05-07 06:55 | 50.36283 | 11.89696 | 34900 ft | 433 kts | 160° |
| 2026-05-07 06:55 | 50.30736 | 11.93370 | 34894 ft | 433 kts | 160° |
| 2026-05-07 06:56 | 50.25193 | 11.97088 | 34906 ft | 433 kts | 160° |
| 2026-05-07 06:56 | 50.19664 | 12.00822 | 34880 ft | 433 kts | 160° |
| 2026-05-07 06:57 | 50.14152 | 12.04533 | 34913 ft | 430 kts | 160° |
| 2026-05-07 06:57 | 50.08666 | 12.08205 | 34918 ft | 428 kts | 160° |
| 2026-05-07 06:58 | 50.03197 | 12.11850 | 34921 ft | 427 kts | 160° |
| 2026-05-07 06:58 | 49.97741 | 12.15478 | 34925 ft | 426 kts | 160° |
| 2026-05-07 06:59 | 49.92292 | 12.19103 | 34926 ft | 426 kts | 160° |
| 2026-05-07 06:59 | 49.86846 | 12.22704 | 34922 ft | 425 kts | 160° |
| 2026-05-07 07:00 | 49.82222 | 12.25760 | 34924 ft | 425 kts | 160° |
| 2026-05-07 07:00 | 49.76777 | 12.29356 | 34899 ft | 425 kts | 161° |
| 2026-05-07 07:01 | 49.71450 | 12.33329 | 34928 ft | 430 kts | 151° |
| 2026-05-07 07:01 | 49.66680 | 12.38838 | 34591 ft | 429 kts | 148° |
| 2026-05-07 07:02 | 49.64309 | 12.41619 | 34369 ft | 427 kts | 148° |
| 2026-05-07 07:02 | 49.61942 | 12.44388 | 34138 ft | 426 kts | 148° |
| 2026-05-07 07:02 | 49.59589 | 12.47132 | 33894 ft | 424 kts | 148° |
| 2026-05-07 07:02 | 49.57239 | 12.49864 | 33618 ft | 423 kts | 148° |
| 2026-05-07 07:03 | 49.54881 | 12.52602 | 32812 ft | 426 kts | 148° |
| 2026-05-07 07:03 | 49.52507 | 12.55351 | 31924 ft | 428 kts | 148° |
| 2026-05-07 07:03 | 49.50122 | 12.58107 | 31007 ft | 431 kts | 148° |
| 2026-05-07 07:03 | 49.47713 | 12.60882 | 30040 ft | 435 kts | 147° |
| 2026-05-07 07:04 | 49.45282 | 12.63687 | 28928 ft | 437 kts | 148° |
| 2026-05-07 07:04 | 49.42861 | 12.66524 | 27788 ft | 438 kts | 148° |
| 2026-05-07 07:04 | 49.40331 | 12.69032 | 26615 ft | 429 kts | 156° |
| 2026-05-07 07:04 | 49.37621 | 12.70793 | 25892 ft | 416 kts | 166° |
| 2026-05-07 07:05 | 49.34803 | 12.71664 | 25110 ft | 411 kts | 178° |
| 2026-05-07 07:05 | 49.31963 | 12.71557 | 24377 ft | 407 kts | 189° |
| 2026-05-07 07:05 | 49.29220 | 12.70545 | 23652 ft | 405 kts | 200° |
| 2026-05-07 07:05 | 49.26647 | 12.68817 | 22874 ft | 403 kts | 205° |
| 2026-05-07 07:06 | 49.24124 | 12.67003 | 22204 ft | 399 kts | 205° |
| 2026-05-07 07:06 | 49.21610 | 12.65222 | 21508 ft | 397 kts | 205° |
| 2026-05-07 07:06 | 49.19115 | 12.63459 | 20905 ft | 393 kts | 205° |
| 2026-05-07 07:06 | 49.16648 | 12.61701 | 20301 ft | 390 kts | 205° |
| 2026-05-07 07:07 | 49.14203 | 12.59945 | 19701 ft | 387 kts | 205° |
| 2026-05-07 07:07 | 49.11775 | 12.58202 | 19128 ft | 384 kts | 205° |
| 2026-05-07 07:07 | 49.09363 | 12.56479 | 18591 ft | 381 kts | 205° |
| 2026-05-07 07:07 | 49.06969 | 12.54774 | 18016 ft | 379 kts | 205° |
| 2026-05-07 07:08 | 49.04598 | 12.53087 | 17498 ft | 374 kts | 205° |
| 2026-05-07 07:08 | 49.02254 | 12.51415 | 16991 ft | 370 kts | 205° |
| 2026-05-07 07:08 | 48.99937 | 12.49755 | 16509 ft | 366 kts | 206° |
| 2026-05-07 07:08 | 48.97646 | 12.48112 | 16029 ft | 362 kts | 206° |
| 2026-05-07 07:09 | 48.95373 | 12.46481 | 15535 ft | 359 kts | 206° |
| 2026-05-07 07:09 | 48.93125 | 12.44874 | 15051 ft | 356 kts | 206° |
| 2026-05-07 07:09 | 48.90887 | 12.43280 | 14547 ft | 354 kts | 207° |
| 2026-05-07 07:09 | 48.88663 | 12.41699 | 14031 ft | 352 kts | 207° |
| 2026-05-07 07:10 | 48.86447 | 12.40127 | 13451 ft | 347 kts | 207° |
| 2026-05-07 07:10 | 48.84291 | 12.38602 | 12920 ft | 340 kts | 207° |
| 2026-05-07 07:10 | 48.82151 | 12.37090 | 12367 ft | 338 kts | 207° |
| 2026-05-07 07:10 | 48.80025 | 12.35590 | 11801 ft | 336 kts | 207° |
| 2026-05-07 07:11 | 48.77775 | 12.34553 | 11228 ft | 345 kts | 189° |
| 2026-05-07 07:11 | 48.75374 | 12.34406 | 10656 ft | 344 kts | 184° |
| 2026-05-07 07:11 | 48.73057 | 12.34376 | 10388 ft | 319 kts | 184° |
| 2026-05-07 07:11 | 48.70950 | 12.34374 | 10263 ft | 294 kts | 184° |
| 2026-05-07 07:12 | 48.68966 | 12.34389 | 9982 ft | 278 kts | 184° |
| 2026-05-07 07:12 | 48.67047 | 12.34409 | 9415 ft | 273 kts | 184° |
| 2026-05-07 07:12 | 48.65154 | 12.34429 | 8796 ft | 271 kts | 184° |
| 2026-05-07 07:12 | 48.63274 | 12.34453 | 8121 ft | 270 kts | 184° |
| 2026-05-07 07:13 | 48.61405 | 12.34495 | 7469 ft | 268 kts | 184° |
| 2026-05-07 07:13 | 48.59543 | 12.34494 | 6839 ft | 264 kts | 191° |
| 2026-05-07 07:13 | 48.57756 | 12.34027 | 6209 ft | 259 kts | 197° |
| 2026-05-07 07:13 | 48.55997 | 12.33448 | 5547 ft | 257 kts | 198° |
| 2026-05-07 07:14 | 48.54260 | 12.32860 | 5077 ft | 254 kts | 197° |
| 2026-05-07 07:14 | 48.52520 | 12.32255 | 4973 ft | 258 kts | 198° |
| 2026-05-07 07:14 | 48.50806 | 12.31475 | 4981 ft | 257 kts | 204° |
| 2026-05-07 07:14 | 48.49130 | 12.30524 | 4984 ft | 257 kts | 205° |
| 2026-05-07 07:15 | 48.47513 | 12.29589 | 4977 ft | 240 kts | 206° |
| 2026-05-07 07:15 | 48.46003 | 12.28727 | 4982 ft | 226 kts | 206° |
| 2026-05-07 07:15 | 48.44535 | 12.27904 | 4982 ft | 225 kts | 205° |
| 2026-05-07 07:15 | 48.43068 | 12.27081 | 4987 ft | 224 kts | 206° |
| 2026-05-07 07:16 | 48.41640 | 12.26188 | 4973 ft | 220 kts | 218° |
| 2026-05-07 07:16 | 48.40462 | 12.24781 | 4993 ft | 215 kts | 226° |
| 2026-05-07 07:16 | 48.39448 | 12.23158 | 4976 ft | 211 kts | 242° |
| 2026-05-07 07:16 | 48.38990 | 12.21104 | 4990 ft | 208 kts | 266° |
| 2026-05-07 07:17 | 48.38937 | 12.18930 | 4989 ft | 209 kts | 268° |
| 2026-05-07 07:17 | 48.38891 | 12.16737 | 4995 ft | 210 kts | 267° |
| 2026-05-07 07:17 | 48.38931 | 12.14546 | 4991 ft | 210 kts | 271° |
| 2026-05-07 07:17 | 48.38912 | 12.12348 | 5000 ft | 210 kts | 265° |
| 2026-05-07 07:18 | 48.38784 | 12.10171 | 4991 ft | 206 kts | 263° |
| 2026-05-07 07:18 | 48.38632 | 12.08069 | 4872 ft | 199 kts | 263° |
| 2026-05-07 07:18 | 48.38483 | 12.06049 | 4641 ft | 189 kts | 263° |
| 2026-05-07 07:18 | 48.38340 | 12.04121 | 4399 ft | 182 kts | 263° |
| 2026-05-07 07:19 | 48.38200 | 12.02233 | 4159 ft | 182 kts | 263° |
| 2026-05-07 07:19 | 48.38059 | 12.00346 | 3925 ft | 179 kts | 263° |
| 2026-05-07 07:19 | 48.37923 | 11.98521 | 3678 ft | 170 kts | 263° |
| 2026-05-07 07:19 | 48.37798 | 11.96841 | 3457 ft | 157 kts | 263° |
| 2026-05-07 07:20 | 48.37680 | 11.95272 | 3261 ft | 147 kts | 263° |
| 2026-05-07 07:20 | 48.37566 | 11.93756 | 3063 ft | 145 kts | 263° |
| 2026-05-07 07:20 | 48.37452 | 11.92239 | 2862 ft | 146 kts | 262° |
| 2026-05-07 07:20 | 48.37341 | 11.90740 | 2643 ft | 143 kts | 261° |
| 2026-05-07 07:21 | 48.37228 | 11.89255 | 2428 ft | 143 kts | 262° |
| 2026-05-07 07:21 | 48.37115 | 11.87770 | 2245 ft | 143 kts | 263° |
| 2026-05-07 07:21 | 48.37005 | 11.86302 | 2070 ft | 142 kts | 263° |
| 2026-05-07 07:21 | 48.36892 | 11.84817 | 1833 ft | 143 kts | 264° |
| 2026-05-07 07:22 | 48.36784 | 11.83319 | 1661 ft | 145 kts | 263° |
| 2026-05-07 07:22 | 48.36660 | 11.81677 | 1778 ft | 179 kts | 262° |
| 2026-05-07 07:22 | 48.36497 | 11.79755 | 2442 ft | 187 kts | 262° |
| 2026-05-07 07:22 | 48.36348 | 11.77851 | 3077 ft | 187 kts | 263° |
| 2026-05-07 07:23 | 48.36254 | 11.75813 | 3386 ft | 201 kts | 276° |
| 2026-05-07 07:23 | 48.36926 | 11.73973 | 3968 ft | 212 kts | 317° |
| 2026-05-07 07:23 | 48.38219 | 11.72829 | 4566 ft | 218 kts | 328° |
| 2026-05-07 07:23 | 48.39623 | 11.71891 | 4938 ft | 223 kts | 331° |
| 2026-05-07 07:24 | 48.41047 | 11.70991 | 4990 ft | 221 kts | 331° |
| 2026-05-07 07:24 | 48.42460 | 11.70083 | 5007 ft | 221 kts | 331° |
| 2026-05-07 07:24 | 48.43933 | 11.69406 | 5006 ft | 227 kts | 353° |
| 2026-05-07 07:24 | 48.45491 | 11.69957 | 5003 ft | 239 kts | 27° |
| 2026-05-07 07:25 | 48.47170 | 11.74223 | 5012 ft | 253 kts | 82° |
| 2026-05-07 07:25 | 48.47376 | 11.76865 | 5007 ft | 255 kts | 85° |
| 2026-05-07 07:25 | 48.47543 | 11.79519 | 5015 ft | 253 kts | 85° |
| 2026-05-07 07:26 | 48.47698 | 11.82150 | 5002 ft | 250 kts | 86° |
| 2026-05-07 07:26 | 48.47853 | 11.84750 | 5005 ft | 249 kts | 85° |
| 2026-05-07 07:26 | 48.48003 | 11.87354 | 5005 ft | 249 kts | 85° |
| 2026-05-07 07:26 | 48.48157 | 11.89960 | 5001 ft | 249 kts | 85° |
| 2026-05-07 07:27 | 48.48315 | 11.92557 | 5005 ft | 248 kts | 85° |
| 2026-05-07 07:27 | 48.48467 | 11.95145 | 5001 ft | 248 kts | 85° |
| 2026-05-07 07:27 | 48.48615 | 11.97738 | 4998 ft | 248 kts | 85° |
| 2026-05-07 07:27 | 48.48762 | 12.00325 | 4993 ft | 248 kts | 85° |
| 2026-05-07 07:28 | 48.48907 | 12.02881 | 4992 ft | 248 kts | 85° |
| 2026-05-07 07:28 | 48.49031 | 12.05471 | 4994 ft | 247 kts | 91° |
| 2026-05-07 07:28 | 48.48668 | 12.07961 | 4987 ft | 242 kts | 119° |
| 2026-05-07 07:28 | 48.47687 | 12.09890 | 4985 ft | 220 kts | 146° |
| 2026-05-07 07:29 | 48.46406 | 12.10954 | 4989 ft | 205 kts | 169° |
| 2026-05-07 07:29 | 48.45024 | 12.11198 | 4998 ft | 198 kts | 190° |
| 2026-05-07 07:29 | 48.43679 | 12.10843 | 4991 ft | 195 kts | 198° |
| 2026-05-07 07:29 | 48.42354 | 12.10453 | 4995 ft | 194 kts | 198° |
| 2026-05-07 07:30 | 48.41056 | 12.09987 | 4994 ft | 189 kts | 207° |
| 2026-05-07 07:30 | 48.39937 | 12.09035 | 4998 ft | 183 kts | 224° |
| 2026-05-07 07:30 | 48.39097 | 12.07670 | 4995 ft | 179 kts | 239° |
| 2026-05-07 07:30 | 48.38576 | 12.05958 | 4918 ft | 179 kts | 257° |
| 2026-05-07 07:31 | 48.38364 | 12.04130 | 4520 ft | 178 kts | 262° |
| 2026-05-07 07:31 | 48.38216 | 12.02337 | 4206 ft | 168 kts | 263° |
| 2026-05-07 07:31 | 48.38086 | 12.00651 | 3957 ft | 157 kts | 263° |
| 2026-05-07 07:31 | 48.37966 | 11.99069 | 3747 ft | 149 kts | 263° |
| 2026-05-07 07:32 | 48.37852 | 11.97549 | 3547 ft | 145 kts | 263° |
| 2026-05-07 07:32 | 48.37739 | 11.96051 | 3357 ft | 144 kts | 263° |
| 2026-05-07 07:32 | 48.37627 | 11.94560 | 3168 ft | 143 kts | 263° |
| 2026-05-07 07:32 | 48.37516 | 11.93079 | 2974 ft | 143 kts | 263° |
| 2026-05-07 07:33 | 48.37403 | 11.91576 | 2770 ft | 145 kts | 262° |
| 2026-05-07 07:33 | 48.37286 | 11.90084 | 2551 ft | 143 kts | 262° |
| 2026-05-07 07:33 | 48.37175 | 11.88606 | 2349 ft | 143 kts | 263° |
| 2026-05-07 07:33 | 48.37066 | 11.87130 | 2159 ft | 141 kts | 263° |
| 2026-05-07 07:34 | 48.36951 | 11.85669 | 1989 ft | 140 kts | 262° |
| 2026-05-07 07:34 | 48.36847 | 11.84217 | 1806 ft | 140 kts | 262° |
| 2026-05-07 07:34 | 48.36737 | 11.82750 | 1601 ft | 140 kts | 263° |
| 2026-05-07 07:34 | 48.36632 | 11.81316 | 1487 ft | 130 kts | 262° |
| 2026-05-07 07:35 | 48.36543 | 11.80209 | 1485 ft | 82 kts | 263° |
| 2026-05-07 07:35 | 48.36484 | 11.79462 | 1485 ft | 66 kts | 263° |
| 2026-05-07 07:35 | 48.36436 | 11.79013 | 1474 ft | 32 kts | 247° |
| 2026-05-07 07:35 | 48.36328 | 11.78762 | 1478 ft | 23 kts | 233° |
| 2026-05-07 07:36 | 48.36275 | 11.78656 | 1480 ft | 8 kts | 233° |
| 2026-05-07 07:36 | 48.36240 | 11.78584 | 1471 ft | 9 kts | 233° |
| 2026-05-07 07:36 | 48.36192 | 11.78503 | 1475 ft | 11 kts | 217° |
| 2026-05-07 07:36 | 48.36111 | 11.78480 | 1485 ft | 11 kts | 174° |
| 2026-05-07 07:37 | 48.36057 | 11.78494 | 1480 ft | 7 kts | 158° |
| 2026-05-07 07:37 | 48.36037 | 11.78546 | 1477 ft | 5 kts | 97° |
| 2026-05-07 07:37 | 48.36042 | 11.78652 | 1485 ft | 12 kts | 83° |
| 2026-05-07 07:37 | 48.36051 | 11.78774 | 1472 ft | 11 kts | 83° |
| 2026-05-07 07:38 | 48.36059 | 11.78879 | 1485 ft | 9 kts | 83° |
| 2026-05-07 07:38 | 48.36064 | 11.78941 | 1473 ft | 8 kts | 83° |
| 2026-05-07 07:38 | 48.36071 | 11.79031 | 1485 ft | 9 kts | 83° |
| 2026-05-07 07:38 | 48.36078 | 11.79133 | 1478 ft | 10 kts | 82° |
| 2026-05-07 07:39 | 48.36088 | 11.79246 | 1485 ft | 11 kts | 85° |
| 2026-05-07 07:39 | 48.36042 | 11.79324 | 1478 ft | 12 kts | 168° |
| 2026-05-07 07:39 | 48.35956 | 11.79340 | 1478 ft | 14 kts | 172° |
| 2026-05-07 07:39 | 48.35865 | 11.79382 | 1480 ft | 14 kts | 171° |
| 2026-05-07 07:40 | 48.35763 | 11.79400 | 1481 ft | 16 kts | 174° |
| 2026-05-07 07:40 | 48.35696 | 11.79412 | 1482 ft | 8 kts | 173° |
| 2026-05-07 07:40 | 48.35645 | 11.79420 | 1480 ft | 8 kts | 173° |
| 2026-05-07 07:40 | 48.35583 | 11.79431 | 1485 ft | 8 kts | 174° |
| 2026-05-07 07:41 | 48.35531 | 11.79440 | 1481 ft | 7 kts | 172° |
| 2026-05-07 07:41 | 48.35507 | 11.79419 | 1476 ft | 4 kts | 249° |
| 2026-05-07 07:41 | 48.35501 | 11.79363 | 1473 ft | 6 kts | 252° |
| 2026-05-07 07:41 | 48.35499 | 11.79308 | 1485 ft | 5 kts | 265° |
| 2026-05-07 07:42 | 48.35497 | 11.79286 | 1485 ft | 0 kts | 262° |